sensor_id;sensor_type;location;lat;lon;timestamp;P1;durP1;ratioP1;P2;durP2;ratioP2
52642;SDS011;38531;53.296;6.614;2022-08-06T00:00:00;0.30;;;0.30;;
52642;SDS011;38531;53.296;6.614;2022-08-06T00:02:38;0.40;;;0.40;;
52642;SDS011;38531;53.296;6.614;2022-08-06T00:05:06;1.55;;;0.40;;
52642;SDS011;38531;53.296;6.614;2022-08-06T00:07:40;0.50;;;0.35;;
52642;SDS011;38531;53.296;6.614;2022-08-06T00:10:11;0.95;;;0.40;;
52642;SDS011;38531;53.296;6.614;2022-08-06T00:12:41;0.40;;;0.30;;
52642;SDS011;38531;53.296;6.614;2022-08-06T00:15:08;1.85;;;0.45;;
52642;SDS011;38531;53.296;6.614;2022-08-06T00:17:39;0.85;;;0.30;;
52642;SDS011;38531;53.296;6.614;2022-08-06T00:20:06;1.00;;;0.30;;
52642;SDS011;38531;53.296;6.614;2022-08-06T00:22:35;1.25;;;0.30;;
52642;SDS011;38531;53.296;6.614;2022-08-06T00:25:05;1.15;;;0.45;;
52642;SDS011;38531;53.296;6.614;2022-08-06T00:27:56;0.40;;;0.30;;
52642;SDS011;38531;53.296;6.614;2022-08-06T00:30:58;0.30;;;0.30;;
52642;SDS011;38531;53.296;6.614;2022-08-06T00:33:58;1.65;;;0.20;;
52642;SDS011;38531;53.296;6.614;2022-08-06T00:41:10;0.30;;;0.30;;
52642;SDS011;38531;53.296;6.614;2022-08-06T00:43:42;0.20;;;0.20;;
52642;SDS011;38531;53.296;6.614;2022-08-06T00:46:26;0.30;;;0.30;;
52642;SDS011;38531;53.296;6.614;2022-08-06T00:49:08;1.40;;;0.20;;
52642;SDS011;38531;53.296;6.614;2022-08-06T00:51:40;1.10;;;0.22;;
52642;SDS011;38531;53.296;6.614;2022-08-06T00:54:17;0.43;;;0.30;;
52642;SDS011;38531;53.296;6.614;2022-08-06T01:00:20;0.25;;;0.20;;
52642;SDS011;38531;53.296;6.614;2022-08-06T01:02:50;1.65;;;0.22;;
52642;SDS011;38531;53.296;6.614;2022-08-06T01:05:22;0.20;;;0.20;;
52642;SDS011;38531;53.296;6.614;2022-08-06T01:11:01;0.70;;;0.30;;
52642;SDS011;38531;53.296;6.614;2022-08-06T01:14:02;0.22;;;0.20;;
52642;SDS011;38531;53.296;6.614;2022-08-06T01:19:50;0.63;;;0.20;;
52642;SDS011;38531;53.296;6.614;2022-08-06T01:27:53;0.20;;;0.20;;
52642;SDS011;38531;53.296;6.614;2022-08-06T01:30:57;1.45;;;0.20;;
52642;SDS011;38531;53.296;6.614;2022-08-06T01:34:18;0.13;;;0.10;;
52642;SDS011;38531;53.296;6.614;2022-08-06T01:37:48;0.40;;;0.20;;
52642;SDS011;38531;53.296;6.614;2022-08-06T01:40:39;1.45;;;0.45;;
52642;SDS011;38531;53.296;6.614;2022-08-06T01:43:34;0.88;;;0.30;;
52642;SDS011;38531;53.296;6.614;2022-08-06T01:46:10;0.63;;;0.30;;
52642;SDS011;38531;53.296;6.614;2022-08-06T01:48:43;1.10;;;0.20;;
52642;SDS011;38531;53.296;6.614;2022-08-06T01:51:13;0.73;;;0.20;;
52642;SDS011;38531;53.296;6.614;2022-08-06T01:53:50;0.32;;;0.20;;
52642;SDS011;38531;53.296;6.614;2022-08-06T01:59:54;0.32;;;0.20;;
52642;SDS011;38531;53.296;6.614;2022-08-06T02:02:48;0.20;;;0.20;;
52642;SDS011;38531;53.296;6.614;2022-08-06T02:05:36;0.20;;;0.20;;
52642;SDS011;38531;53.296;6.614;2022-08-06T02:08:13;0.30;;;0.28;;
52642;SDS011;38531;53.296;6.614;2022-08-06T02:11:06;0.70;;;0.17;;
52642;SDS011;38531;53.296;6.614;2022-08-06T02:13:34;1.85;;;0.30;;
52642;SDS011;38531;53.296;6.614;2022-08-06T02:16:09;0.30;;;0.10;;
52642;SDS011;38531;53.296;6.614;2022-08-06T02:18:40;1.05;;;0.30;;
52642;SDS011;38531;53.296;6.614;2022-08-06T02:31:59;1.77;;;0.30;;
52642;SDS011;38531;53.296;6.614;2022-08-06T02:34:43;0.30;;;0.30;;
52642;SDS011;38531;53.296;6.614;2022-08-06T02:37:18;0.82;;;0.20;;
52642;SDS011;38531;53.296;6.614;2022-08-06T02:39:57;0.20;;;0.20;;
52642;SDS011;38531;53.296;6.614;2022-08-06T02:42:41;0.40;;;0.40;;
52642;SDS011;38531;53.296;6.614;2022-08-06T02:48:12;0.30;;;0.30;;
52642;SDS011;38531;53.296;6.614;2022-08-06T03:04:14;1.08;;;0.20;;
52642;SDS011;38531;53.296;6.614;2022-08-06T03:07:06;0.30;;;0.20;;
52642;SDS011;38531;53.296;6.614;2022-08-06T03:10:00;0.32;;;0.30;;
52642;SDS011;38531;53.296;6.614;2022-08-06T03:12:29;1.60;;;0.30;;
52642;SDS011;38531;53.296;6.614;2022-08-06T03:14:59;0.30;;;0.30;;
52642;SDS011;38531;53.296;6.614;2022-08-06T03:17:36;0.28;;;0.20;;
52642;SDS011;38531;53.296;6.614;2022-08-06T03:20:13;0.20;;;0.20;;
52642;SDS011;38531;53.296;6.614;2022-08-06T03:22:48;0.65;;;0.25;;
52642;SDS011;38531;53.296;6.614;2022-08-06T03:25:26;1.13;;;0.35;;
52642;SDS011;38531;53.296;6.614;2022-08-06T03:28:04;0.30;;;0.20;;
52642;SDS011;38531;53.296;6.614;2022-08-06T03:31:18;0.63;;;0.20;;
52642;SDS011;38531;53.296;6.614;2022-08-06T03:33:52;0.40;;;0.35;;
52642;SDS011;38531;53.296;6.614;2022-08-06T03:43:09;0.15;;;0.15;;
52642;SDS011;38531;53.296;6.614;2022-08-06T03:45:53;0.20;;;0.20;;
52642;SDS011;38531;53.296;6.614;2022-08-06T03:48:31;0.50;;;0.30;;
52642;SDS011;38531;53.296;6.614;2022-08-06T03:51:16;0.20;;;0.20;;
52642;SDS011;38531;53.296;6.614;2022-08-06T03:53:51;0.10;;;0.10;;
52642;SDS011;38531;53.296;6.614;2022-08-06T03:56:22;0.30;;;0.17;;
52642;SDS011;38531;53.296;6.614;2022-08-06T03:59:08;0.20;;;0.20;;
52642;SDS011;38531;53.296;6.614;2022-08-06T04:01:45;0.30;;;0.30;;
52642;SDS011;38531;53.296;6.614;2022-08-06T04:04:22;0.52;;;0.30;;
52642;SDS011;38531;53.296;6.614;2022-08-06T04:06:55;3.20;;;0.30;;
52642;SDS011;38531;53.296;6.614;2022-08-06T04:09:30;0.40;;;0.30;;
52642;SDS011;38531;53.296;6.614;2022-08-06T04:11:58;0.80;;;0.43;;
52642;SDS011;38531;53.296;6.614;2022-08-06T04:14:33;1.48;;;0.40;;
52642;SDS011;38531;53.296;6.614;2022-08-06T04:17:10;0.57;;;0.30;;
52642;SDS011;38531;53.296;6.614;2022-08-06T04:19:53;0.35;;;0.30;;
52642;SDS011;38531;53.296;6.614;2022-08-06T04:22:41;2.15;;;0.65;;
52642;SDS011;38531;53.296;6.614;2022-08-06T04:25:12;0.40;;;0.40;;
52642;SDS011;38531;53.296;6.614;2022-08-06T04:27:44;0.35;;;0.30;;
52642;SDS011;38531;53.296;6.614;2022-08-06T04:33:29;1.25;;;0.30;;
52642;SDS011;38531;53.296;6.614;2022-08-06T04:37:03;0.57;;;0.30;;
52642;SDS011;38531;53.296;6.614;2022-08-06T04:39:47;0.98;;;0.30;;
52642;SDS011;38531;53.296;6.614;2022-08-06T04:42:48;0.20;;;0.20;;
52642;SDS011;38531;53.296;6.614;2022-08-06T04:45:23;0.30;;;0.30;;
52642;SDS011;38531;53.296;6.614;2022-08-06T04:48:20;1.20;;;0.38;;
52642;SDS011;38531;53.296;6.614;2022-08-06T04:51:24;0.80;;;0.30;;
52642;SDS011;38531;53.296;6.614;2022-08-06T04:53:53;1.60;;;0.30;;
52642;SDS011;38531;53.296;6.614;2022-08-06T04:56:44;0.93;;;0.82;;
52642;SDS011;38531;53.296;6.614;2022-08-06T04:59:54;0.25;;;0.20;;
52642;SDS011;38531;53.296;6.614;2022-08-06T05:02:47;1.00;;;0.20;;
52642;SDS011;38531;53.296;6.614;2022-08-06T05:08:55;0.17;;;0.17;;
52642;SDS011;38531;53.296;6.614;2022-08-06T05:15:35;0.20;;;0.20;;
52642;SDS011;38531;53.296;6.614;2022-08-06T05:18:53;0.30;;;0.30;;
52642;SDS011;38531;53.296;6.614;2022-08-06T05:21:52;0.55;;;0.25;;
52642;SDS011;38531;53.296;6.614;2022-08-06T05:24:25;0.65;;;0.28;;
52642;SDS011;38531;53.296;6.614;2022-08-06T05:27:00;0.35;;;0.20;;
52642;SDS011;38531;53.296;6.614;2022-08-06T05:29:32;0.22;;;0.20;;
52642;SDS011;38531;53.296;6.614;2022-08-06T05:32:05;0.80;;;0.40;;
52642;SDS011;38531;53.296;6.614;2022-08-06T05:34:36;0.55;;;0.30;;
52642;SDS011;38531;53.296;6.614;2022-08-06T05:43:52;0.40;;;0.30;;
52642;SDS011;38531;53.296;6.614;2022-08-06T05:46:19;0.65;;;0.30;;
52642;SDS011;38531;53.296;6.614;2022-08-06T05:49:07;0.20;;;0.20;;
52642;SDS011;38531;53.296;6.614;2022-08-06T05:55:37;1.20;;;0.30;;
52642;SDS011;38531;53.296;6.614;2022-08-06T06:09:54;2.45;;;0.30;;
52642;SDS011;38531;53.296;6.614;2022-08-06T06:48:23;0.30;;;0.20;;
52642;SDS011;38531;53.296;6.614;2022-08-06T06:51:13;0.30;;;0.30;;
52642;SDS011;38531;53.296;6.614;2022-08-06T06:53:55;2.38;;;0.52;;
52642;SDS011;38531;53.296;6.614;2022-08-06T07:10:38;2.42;;;0.35;;
52642;SDS011;38531;53.296;6.614;2022-08-06T07:13:11;1.85;;;0.20;;
52642;SDS011;38531;53.296;6.614;2022-08-06T07:15:38;0.75;;;0.20;;
52642;SDS011;38531;53.296;6.614;2022-08-06T07:18:12;1.42;;;0.20;;
52642;SDS011;38531;53.296;6.614;2022-08-06T07:20:39;0.20;;;0.20;;
52642;SDS011;38531;53.296;6.614;2022-08-06T07:23:23;0.32;;;0.25;;
52642;SDS011;38531;53.296;6.614;2022-08-06T07:25:49;1.25;;;0.30;;
52642;SDS011;38531;53.296;6.614;2022-08-06T07:28:17;1.92;;;0.32;;
52642;SDS011;38531;53.296;6.614;2022-08-06T07:30:43;0.52;;;0.10;;
52642;SDS011;38531;53.296;6.614;2022-08-06T07:33:10;0.82;;;0.30;;
52642;SDS011;38531;53.296;6.614;2022-08-06T07:35:40;1.58;;;0.20;;
52642;SDS011;38531;53.296;6.614;2022-08-06T07:38:08;0.85;;;0.20;;
52642;SDS011;38531;53.296;6.614;2022-08-06T07:40:54;0.20;;;0.10;;
52642;SDS011;38531;53.296;6.614;2022-08-06T07:43:28;0.50;;;0.10;;
52642;SDS011;38531;53.296;6.614;2022-08-06T07:45:56;2.35;;;0.30;;
52642;SDS011;38531;53.296;6.614;2022-08-06T07:48:30;0.43;;;0.10;;
52642;SDS011;38531;53.296;6.614;2022-08-06T07:51:05;0.30;;;0.03;;
52642;SDS011;38531;53.296;6.614;2022-08-06T07:53:35;1.30;;;0.10;;
52642;SDS011;38531;53.296;6.614;2022-08-06T07:56:06;2.78;;;0.20;;
52642;SDS011;38531;53.296;6.614;2022-08-06T07:58:35;0.30;;;0.20;;
52642;SDS011;38531;53.296;6.614;2022-08-06T08:01:02;0.20;;;0.10;;
52642;SDS011;38531;53.296;6.614;2022-08-06T08:03:30;0.63;;;0.20;;
52642;SDS011;38531;53.296;6.614;2022-08-06T08:06:17;2.20;;;0.10;;
52642;SDS011;38531;53.296;6.614;2022-08-06T08:08:43;0.55;;;0.10;;
52642;SDS011;38531;53.296;6.614;2022-08-06T08:11:28;1.20;;;0.20;;
52642;SDS011;38531;53.296;6.614;2022-08-06T08:13:56;1.15;;;0.20;;
52642;SDS011;38531;53.296;6.614;2022-08-06T08:16:27;0.63;;;0.10;;
52642;SDS011;38531;53.296;6.614;2022-08-06T08:18:53;1.08;;;0.20;;
52642;SDS011;38531;53.296;6.614;2022-08-06T08:21:19;0.95;;;0.20;;
52642;SDS011;38531;53.296;6.614;2022-08-06T08:27:27;1.17;;;0.20;;
52642;SDS011;38531;53.296;6.614;2022-08-06T08:29:53;0.20;;;0.10;;
52642;SDS011;38531;53.296;6.614;2022-08-06T08:32:19;0.25;;;0.20;;
52642;SDS011;38531;53.296;6.614;2022-08-06T08:34:46;1.30;;;0.30;;
52642;SDS011;38531;53.296;6.614;2022-08-06T08:37:11;1.27;;;0.20;;
52642;SDS011;38531;53.296;6.614;2022-08-06T08:39:37;0.52;;;0.20;;
52642;SDS011;38531;53.296;6.614;2022-08-06T08:42:04;2.45;;;0.35;;
52642;SDS011;38531;53.296;6.614;2022-08-06T08:44:39;1.27;;;0.30;;
52642;SDS011;38531;53.296;6.614;2022-08-06T08:47:06;1.50;;;0.32;;
52642;SDS011;38531;53.296;6.614;2022-08-06T08:52:12;0.40;;;0.20;;
52642;SDS011;38531;53.296;6.614;2022-08-06T08:54:45;0.32;;;0.30;;
52642;SDS011;38531;53.296;6.614;2022-08-06T08:57:14;1.75;;;0.28;;
52642;SDS011;38531;53.296;6.614;2022-08-06T08:59:41;0.30;;;0.30;;
52642;SDS011;38531;53.296;6.614;2022-08-06T09:02:09;1.98;;;0.38;;
52642;SDS011;38531;53.296;6.614;2022-08-06T09:04:37;0.68;;;0.35;;
52642;SDS011;38531;53.296;6.614;2022-08-06T09:07:03;0.77;;;0.30;;
52642;SDS011;38531;53.296;6.614;2022-08-06T09:09:30;0.63;;;0.22;;
52642;SDS011;38531;53.296;6.614;2022-08-06T09:12:00;0.22;;;0.20;;
52642;SDS011;38531;53.296;6.614;2022-08-06T09:14:25;1.52;;;0.40;;
52642;SDS011;38531;53.296;6.614;2022-08-06T09:54:21;2.92;;;0.52;;
52642;SDS011;38531;53.296;6.614;2022-08-06T11:41:29;1.90;;;0.80;;
52642;SDS011;38531;53.296;6.614;2022-08-06T11:44:18;1.67;;;1.00;;
52642;SDS011;38531;53.296;6.614;2022-08-06T17:08:27;1.02;;;0.57;;
52642;SDS011;38531;53.296;6.614;2022-08-06T17:14:23;1.33;;;0.65;;
52642;SDS011;38531;53.296;6.614;2022-08-06T17:17:44;2.45;;;0.80;;
52642;SDS011;38531;53.296;6.614;2022-08-06T17:26:51;1.75;;;0.80;;
52642;SDS011;38531;53.296;6.614;2022-08-06T17:29:32;1.17;;;0.60;;
52642;SDS011;38531;53.296;6.614;2022-08-06T17:31:58;2.65;;;0.60;;
52642;SDS011;38531;53.296;6.614;2022-08-06T17:34:30;2.30;;;0.70;;
52642;SDS011;38531;53.296;6.614;2022-08-06T18:01:06;1.60;;;0.82;;
52642;SDS011;38531;53.296;6.614;2022-08-06T18:03:55;2.45;;;0.80;;
52642;SDS011;38531;53.296;6.614;2022-08-06T18:06:58;1.60;;;0.73;;
52642;SDS011;38531;53.296;6.614;2022-08-06T18:09:53;1.00;;;0.60;;
52642;SDS011;38531;53.296;6.614;2022-08-06T18:36:20;2.30;;;0.80;;
52642;SDS011;38531;53.296;6.614;2022-08-06T18:39:44;1.02;;;0.70;;
52642;SDS011;38531;53.296;6.614;2022-08-06T18:46:15;1.95;;;0.70;;
52642;SDS011;38531;53.296;6.614;2022-08-06T18:49:35;1.30;;;0.77;;
52642;SDS011;38531;53.296;6.614;2022-08-06T18:53:45;1.20;;;0.70;;
52642;SDS011;38531;53.296;6.614;2022-08-06T18:56:03;2.38;;;0.73;;
52642;SDS011;38531;53.296;6.614;2022-08-06T18:59:16;1.45;;;0.60;;
52642;SDS011;38531;53.296;6.614;2022-08-06T19:01:42;1.65;;;0.70;;
52642;SDS011;38531;53.296;6.614;2022-08-06T19:04:08;2.28;;;1.00;;
52642;SDS011;38531;53.296;6.614;2022-08-06T19:06:37;2.08;;;0.77;;
52642;SDS011;38531;53.296;6.614;2022-08-06T19:09:03;1.70;;;0.90;;
52642;SDS011;38531;53.296;6.614;2022-08-06T19:11:29;1.38;;;0.80;;
52642;SDS011;38531;53.296;6.614;2022-08-06T19:14:22;0.98;;;0.60;;
52642;SDS011;38531;53.296;6.614;2022-08-06T19:17:06;1.38;;;0.70;;
52642;SDS011;38531;53.296;6.614;2022-08-06T19:19:36;2.20;;;0.80;;
52642;SDS011;38531;53.296;6.614;2022-08-06T19:25:11;1.17;;;0.70;;
52642;SDS011;38531;53.296;6.614;2022-08-06T19:41:22;1.75;;;0.85;;
52642;SDS011;38531;53.296;6.614;2022-08-06T21:15:06;2.47;;;1.50;;
52642;SDS011;38531;53.296;6.614;2022-08-06T21:18:08;2.08;;;1.40;;
52642;SDS011;38531;53.296;6.614;2022-08-06T21:21:07;2.58;;;1.60;;
52642;SDS011;38531;53.296;6.614;2022-08-06T21:24:14;3.95;;;1.45;;
52642;SDS011;38531;53.296;6.614;2022-08-06T21:29:22;1.98;;;1.15;;
52642;SDS011;38531;53.296;6.614;2022-08-06T21:37:10;2.58;;;1.42;;
52642;SDS011;38531;53.296;6.614;2022-08-06T21:39:44;2.25;;;1.40;;
52642;SDS011;38531;53.296;6.614;2022-08-06T21:42:13;3.30;;;1.80;;
52642;SDS011;38531;53.296;6.614;2022-08-06T21:45:05;2.33;;;1.30;;
52642;SDS011;38531;53.296;6.614;2022-08-06T21:48:18;2.22;;;1.10;;
52642;SDS011;38531;53.296;6.614;2022-08-06T21:51:32;2.00;;;1.20;;
52642;SDS011;38531;53.296;6.614;2022-08-06T21:58:14;3.13;;;1.48;;
52642;SDS011;38531;53.296;6.614;2022-08-06T22:04:20;2.75;;;1.45;;
52642;SDS011;38531;53.296;6.614;2022-08-06T22:15:09;1.95;;;1.17;;
52642;SDS011;38531;53.296;6.614;2022-08-06T22:21:16;5.97;;;1.52;;
52642;SDS011;38531;53.296;6.614;2022-08-06T22:23:58;3.35;;;1.88;;
52642;SDS011;38531;53.296;6.614;2022-08-06T22:26:55;1.80;;;1.42;;
52642;SDS011;38531;53.296;6.614;2022-08-06T22:29:49;2.67;;;1.58;;
52642;SDS011;38531;53.296;6.614;2022-08-06T22:32:51;2.97;;;1.80;;
52642;SDS011;38531;53.296;6.614;2022-08-06T22:38:09;2.97;;;1.75;;
52642;SDS011;38531;53.296;6.614;2022-08-06T22:44:32;3.00;;;1.50;;
52642;SDS011;38531;53.296;6.614;2022-08-06T22:47:10;2.47;;;1.50;;
52642;SDS011;38531;53.296;6.614;2022-08-06T22:49:53;1.92;;;0.90;;
52642;SDS011;38531;53.296;6.614;2022-08-06T22:53:03;2.22;;;1.40;;
52642;SDS011;38531;53.296;6.614;2022-08-06T22:59:20;2.00;;;1.05;;
52642;SDS011;38531;53.296;6.614;2022-08-06T23:02:06;1.95;;;1.30;;
52642;SDS011;38531;53.296;6.614;2022-08-06T23:04:38;3.28;;;1.52;;
52642;SDS011;38531;53.296;6.614;2022-08-06T23:17:33;4.05;;;1.80;;
52642;SDS011;38531;53.296;6.614;2022-08-06T23:20:48;2.53;;;1.77;;
52642;SDS011;38531;53.296;6.614;2022-08-06T23:34:19;2.78;;;1.67;;
52642;SDS011;38531;53.296;6.614;2022-08-06T23:37:31;3.60;;;2.10;;
52642;SDS011;38531;53.296;6.614;2022-08-06T23:51:01;4.13;;;2.13;;
52642;SDS011;38531;53.296;6.614;2022-08-06T23:53:58;5.13;;;2.67;;
52642;SDS011;38531;53.296;6.614;2022-08-06T23:57:04;3.78;;;2.17;;
